createdAt,value
2023-04-22T00:00:35.814Z,43.26
2023-04-22T00:03:03.801Z,43.59
2023-04-22T00:05:30.643Z,43.74
2023-04-22T00:07:57.348Z,43.60
2023-04-22T00:10:23.992Z,43.85
2023-04-22T00:12:51.287Z,43.30
2023-04-22T00:15:23.959Z,43.49
2023-04-22T00:17:50.518Z,43.97
2023-04-22T00:20:17.898Z,45.01
2023-04-22T00:22:44.562Z,45.42
2023-04-22T00:25:11.161Z,45.44
2023-04-22T00:27:37.734Z,44.89
2023-04-22T00:30:04.834Z,44.48
2023-04-22T00:32:31.327Z,44.52
2023-04-22T00:34:58.018Z,43.96
2023-04-22T00:37:24.889Z,43.39
2023-04-22T00:39:51.303Z,44.07
2023-04-22T00:42:18.109Z,44.20
2023-04-22T00:44:47.203Z,44.97
2023-04-22T00:47:13.765Z,45.04
2023-04-22T00:49:43.868Z,45.19
2023-04-22T00:52:11.417Z,45.33
2023-04-22T00:54:38.217Z,45.63
2023-04-22T00:57:05.612Z,45.65
2023-04-22T00:59:32.130Z,46.53
2023-04-22T01:01:59.385Z,46.24
2023-04-22T01:04:31.162Z,46.19
2023-04-22T01:06:57.684Z,46.81
2023-04-22T01:09:26.271Z,46.84
2023-04-22T01:11:53.200Z,46.36
2023-04-22T01:14:19.542Z,47.26
2023-04-22T01:16:46.756Z,47.00
2023-04-22T01:19:13.648Z,47.41
2023-04-22T01:21:40.988Z,47.42
2023-04-22T01:24:08.691Z,47.43
2023-04-22T01:26:35.208Z,46.92
2023-04-22T01:29:02.128Z,46.31
2023-04-22T01:31:29.156Z,46.10
2023-04-22T01:33:56.271Z,45.92
2023-04-22T01:36:22.657Z,45.56
2023-04-22T01:38:49.669Z,44.73
2023-04-22T01:41:16.613Z,45.40
2023-04-22T01:43:43.164Z,45.27
2023-04-22T01:46:09.777Z,45.80
2023-04-22T01:48:36.620Z,45.72
2023-04-22T01:51:03.780Z,45.65
2023-04-22T01:53:30.378Z,45.17
2023-04-22T01:55:56.899Z,44.38
2023-04-22T01:58:23.476Z,44.57
2023-04-22T02:00:49.906Z,44.47
2023-04-22T02:03:16.430Z,44.82
2023-04-22T02:05:42.988Z,45.79
2023-04-22T02:08:10.320Z,46.37
2023-04-22T02:10:36.983Z,47.27
2023-04-22T02:13:03.509Z,46.89
2023-04-22T02:15:30.687Z,46.65
2023-04-22T02:17:57.225Z,46.44
2023-04-22T02:20:23.715Z,46.25
2023-04-22T02:22:50.901Z,46.89
2023-04-22T02:25:18.123Z,47.15
2023-04-22T02:27:44.619Z,47.69
2023-04-22T02:30:11.343Z,48.34
2023-04-22T02:32:39.023Z,48.09
2023-04-22T02:35:05.825Z,47.89
2023-04-22T02:37:32.279Z,48.46
2023-04-22T02:39:58.785Z,48.19
2023-04-22T02:42:25.244Z,48.25
2023-04-22T02:44:51.724Z,47.81
2023-04-22T02:47:18.202Z,47.97
2023-04-22T02:49:45.108Z,48.02
2023-04-22T02:52:11.906Z,47.97
2023-04-22T02:54:38.396Z,48.27
2023-04-22T02:57:05.313Z,48.26
2023-04-22T02:59:32.183Z,48.68
2023-04-22T03:02:18.402Z,48.57
2023-04-22T03:04:45.559Z,48.80
2023-04-22T03:07:12.133Z,48.21
2023-04-22T03:09:39.008Z,48.30
2023-04-22T03:12:05.796Z,48.42
2023-04-22T03:14:32.386Z,47.90
2023-04-22T03:17:01.072Z,48.00
2023-04-22T03:19:28.270Z,48.06
2023-04-22T03:21:56.542Z,48.34
2023-04-22T03:24:23.250Z,48.53
2023-04-22T03:26:58.041Z,47.82
2023-04-22T03:29:24.580Z,47.86
2023-04-22T03:32:08.633Z,47.93
2023-04-22T03:34:37.080Z,47.44
2023-04-22T03:37:04.186Z,46.16
2023-04-22T03:39:31.002Z,46.29
2023-04-22T03:41:59.874Z,46.66
2023-04-22T03:44:27.286Z,47.67
2023-04-22T03:46:56.252Z,46.02
2023-04-22T03:49:23.281Z,45.39
2023-04-22T03:51:50.285Z,44.99
2023-04-22T03:54:18.054Z,45.65
2023-04-22T03:56:44.796Z,45.97
2023-04-22T03:59:19.844Z,45.88
2023-04-22T04:01:47.463Z,45.73
2023-04-22T04:04:33.706Z,46.00
2023-04-22T04:07:00.715Z,45.17
2023-04-22T04:09:28.667Z,45.31
2023-04-22T04:11:55.465Z,45.53
2023-04-22T04:14:27.300Z,45.74
2023-04-22T04:16:54.050Z,45.07
2023-04-22T04:19:20.888Z,44.67
2023-04-22T04:21:47.738Z,44.99
2023-04-22T04:24:14.781Z,45.05
2023-04-22T04:26:41.769Z,44.93
2023-04-22T04:29:11.124Z,44.68
2023-04-22T04:31:37.858Z,45.05
2023-04-22T04:34:04.620Z,46.12
2023-04-22T04:36:34.051Z,46.22
2023-04-22T04:39:00.743Z,46.36
2023-04-22T04:41:33.637Z,45.92
2023-04-22T04:44:00.794Z,46.16
2023-04-22T04:46:29.852Z,46.05
2023-04-22T04:49:03.025Z,45.73
2023-04-22T04:51:34.336Z,45.90
2023-04-22T04:54:01.591Z,45.51
2023-04-22T04:56:35.417Z,46.07
2023-04-22T04:59:02.186Z,45.12
2023-04-22T05:01:34.179Z,44.75
2023-04-22T05:04:01.799Z,45.10
2023-04-22T05:06:28.914Z,45.38
2023-04-22T05:08:55.616Z,44.95
2023-04-22T05:11:24.007Z,44.73
2023-04-22T05:13:50.860Z,44.19
2023-04-22T05:16:17.484Z,44.91
2023-04-22T05:18:44.620Z,44.66
2023-04-22T05:21:11.643Z,44.88
2023-04-22T05:23:38.213Z,44.41
2023-04-22T05:26:04.830Z,44.66
2023-04-22T05:28:31.340Z,43.57
2023-04-22T05:30:58.588Z,42.87
2023-04-22T05:33:25.354Z,43.03
2023-04-22T05:35:52.457Z,42.25
2023-04-22T05:38:19.241Z,41.90
2023-04-22T05:40:46.619Z,41.88
2023-04-22T05:43:13.468Z,42.35
2023-04-22T05:45:56.050Z,41.66
2023-04-22T05:48:25.810Z,41.30
2023-04-22T05:50:52.719Z,40.95
2023-04-22T05:53:19.845Z,41.67
2023-04-22T05:55:46.836Z,41.52
2023-04-22T05:58:13.526Z,42.56
2023-04-22T06:00:40.419Z,41.90
2023-04-22T06:03:07.096Z,41.84
2023-04-22T06:05:33.641Z,41.60
2023-04-22T06:08:16.971Z,40.76
2023-04-22T06:10:43.398Z,40.71
2023-04-22T06:13:11.042Z,41.06
2023-04-22T06:15:38.174Z,40.28
2023-04-22T06:18:06.703Z,40.29
2023-04-22T06:20:33.591Z,40.08
2023-04-22T06:23:00.494Z,40.09
2023-04-22T06:25:42.084Z,39.35
2023-04-22T06:28:09.942Z,38.74
2023-04-22T06:30:57.833Z,39.18
2023-04-22T06:33:24.541Z,39.73
2023-04-22T06:35:52.641Z,38.80
2023-04-22T06:38:21.792Z,39.56
2023-04-22T06:40:48.756Z,39.72
2023-04-22T06:43:16.475Z,39.43
2023-04-22T06:45:56.447Z,38.55
2023-04-22T06:48:23.195Z,38.12
2023-04-22T06:50:51.200Z,37.62
2023-04-22T06:53:18.732Z,36.91
2023-04-22T06:55:46.849Z,36.99
2023-04-22T06:58:14.244Z,38.00
2023-04-22T07:00:45.815Z,37.40
2023-04-22T07:03:12.924Z,37.12
2023-04-22T07:05:40.970Z,36.68
2023-04-22T07:08:07.972Z,35.65
2023-04-22T07:10:36.123Z,36.28
2023-04-22T07:13:23.166Z,36.93
2023-04-22T07:15:50.822Z,36.47
2023-04-22T07:18:18.758Z,36.20
2023-04-22T07:20:48.357Z,35.89
2023-04-22T07:23:15.442Z,36.96
2023-04-22T07:25:42.304Z,37.93
2023-04-22T07:28:09.436Z,36.88
2023-04-22T07:30:36.329Z,35.61
2023-04-22T07:33:03.340Z,35.54
2023-04-22T07:35:31.147Z,35.12
2023-04-22T07:37:59.616Z,35.93
2023-04-22T07:40:28.019Z,35.50
2023-04-22T07:43:13.165Z,35.55
2023-04-22T07:45:40.073Z,36.00
2023-04-22T07:48:09.200Z,36.23
2023-04-22T07:50:38.589Z,35.68
2023-04-22T07:53:07.762Z,34.81
2023-04-22T07:55:35.889Z,34.69
2023-04-22T07:58:06.952Z,34.71
2023-04-22T08:00:35.288Z,35.63
2023-04-22T08:03:13.443Z,34.78
2023-04-22T08:05:44.903Z,34.24
2023-04-22T08:08:11.863Z,33.57
2023-04-22T08:10:42.177Z,33.53
2023-04-22T08:13:21.637Z,33.39
2023-04-22T08:15:48.647Z,34.47
2023-04-22T08:18:17.146Z,33.54
2023-04-22T08:20:45.662Z,34.70
2023-04-22T08:23:16.588Z,35.20
2023-04-22T08:25:45.320Z,34.23
2023-04-22T08:28:19.862Z,33.63
2023-04-22T08:30:48.362Z,33.77
2023-04-22T08:33:27.750Z,34.02
2023-04-22T08:35:54.775Z,34.44
2023-04-22T08:38:22.346Z,33.60
2023-04-22T08:40:51.496Z,34.21
2023-04-22T08:43:27.141Z,33.08
2023-04-22T08:45:53.843Z,32.32
2023-04-22T08:48:20.435Z,32.17
2023-04-22T08:50:49.434Z,31.69
2023-04-22T08:53:16.177Z,31.76
2023-04-22T08:55:45.898Z,31.67
2023-04-22T08:58:13.200Z,31.28
2023-04-22T09:00:45.053Z,31.33
2023-04-22T09:03:13.402Z,31.59
2023-04-22T09:05:41.429Z,31.98
2023-04-22T09:08:08.305Z,32.34
2023-04-22T09:10:39.106Z,32.77
2023-04-22T09:13:07.363Z,32.40
2023-04-22T09:15:34.675Z,31.71
2023-04-22T09:18:03.362Z,31.85
2023-04-22T09:20:44.019Z,31.03
2023-04-22T09:23:13.259Z,31.18
2023-04-22T09:25:41.482Z,31.24
2023-04-22T09:28:12.702Z,31.40
2023-04-22T09:30:42.561Z,31.01
2023-04-22T09:33:10.983Z,31.46
2023-04-22T09:35:40.090Z,32.15
2023-04-22T09:38:08.836Z,32.15
2023-04-22T09:40:38.463Z,32.11
2023-04-22T09:43:08.195Z,32.48
2023-04-22T09:45:46.295Z,32.80
2023-04-22T09:48:13.656Z,32.75
2023-04-22T09:50:44.586Z,32.40
2023-04-22T09:53:12.547Z,31.78
2023-04-22T09:55:43.299Z,31.42
2023-04-22T09:58:11.597Z,32.12
2023-04-22T10:00:42.041Z,32.25
2023-04-22T10:03:11.207Z,32.76
2023-04-22T10:05:46.932Z,32.11
2023-04-22T10:08:26.459Z,33.13
2023-04-22T10:10:54.335Z,31.96
2023-04-22T10:13:21.092Z,31.69
2023-04-22T10:15:50.637Z,31.46
2023-04-22T10:18:21.516Z,31.68
2023-04-22T10:20:49.609Z,31.62
2023-04-22T10:23:24.467Z,31.59
2023-04-22T10:25:56.401Z,31.40
2023-04-22T10:28:24.882Z,30.49
2023-04-22T10:30:53.339Z,30.51
2023-04-22T10:33:25.570Z,31.85
2023-04-22T10:36:23.414Z,31.45
2023-04-22T10:38:50.944Z,31.51
2023-04-22T10:41:23.124Z,31.85
2023-04-22T10:43:59.086Z,31.49
2023-04-22T10:46:35.701Z,31.25
2023-04-22T10:49:09.415Z,31.13
2023-04-22T10:52:04.266Z,30.56
2023-04-22T10:54:36.426Z,30.64
2023-04-22T10:57:10.498Z,31.40
2023-04-22T10:59:48.761Z,30.67
2023-04-22T11:02:17.538Z,31.16
2023-04-22T11:04:45.433Z,31.30
2023-04-22T11:07:27.062Z,30.79
2023-04-22T11:10:10.505Z,30.05
2023-04-22T11:12:40.532Z,30.13
2023-04-22T11:15:08.784Z,29.60
2023-04-22T11:17:38.452Z,30.03
2023-04-22T11:20:12.965Z,30.66
2023-04-22T11:22:44.670Z,30.06
2023-04-22T11:25:12.173Z,29.50
2023-04-22T11:27:47.721Z,29.84
2023-04-22T11:30:24.559Z,30.08
2023-04-22T11:32:52.846Z,30.65
2023-04-22T11:35:19.885Z,30.75
2023-04-22T11:37:48.095Z,30.07
2023-04-22T11:40:30.913Z,30.96
2023-04-22T11:43:01.995Z,30.16
2023-04-22T11:45:30.867Z,29.15
2023-04-22T11:48:06.228Z,29.61
2023-04-22T11:50:37.304Z,30.06
2023-04-22T11:53:23.088Z,29.81
2023-04-22T11:55:53.529Z,30.24
2023-04-22T11:58:39.621Z,29.96
2023-04-22T12:01:07.608Z,30.58
2023-04-22T12:03:35.498Z,30.47
2023-04-22T12:06:05.509Z,30.50
2023-04-22T12:08:45.270Z,30.13
2023-04-22T12:11:13.260Z,29.88
2023-04-22T12:13:41.857Z,29.67
2023-04-22T12:16:09.187Z,28.96
2023-04-22T12:18:41.527Z,29.53
2023-04-22T12:21:09.806Z,29.51
2023-04-22T12:23:50.274Z,30.59
2023-04-22T12:26:26.527Z,29.39
2023-04-22T12:28:55.784Z,29.62
2023-04-22T12:31:25.149Z,29.51
2023-04-22T12:33:52.860Z,29.80
2023-04-22T12:36:23.435Z,28.90
2023-04-22T12:38:52.683Z,29.29
2023-04-22T12:41:19.738Z,28.99
2023-04-22T12:43:49.118Z,29.49
2023-04-22T12:46:17.239Z,30.74
2023-04-22T12:48:45.244Z,29.37
2023-04-22T12:51:13.956Z,29.62
2023-04-22T12:53:43.754Z,30.46
2023-04-22T12:56:11.885Z,29.70
2023-04-22T12:58:39.269Z,29.43
2023-04-22T13:01:20.040Z,29.33
2023-04-22T13:03:53.334Z,30.01
2023-04-22T13:06:23.549Z,30.27
2023-04-22T13:08:51.142Z,30.51
2023-04-22T13:11:28.962Z,30.27
2023-04-22T13:13:56.474Z,30.27
2023-04-22T13:16:24.628Z,30.26
2023-04-22T13:18:53.236Z,30.80
2023-04-22T13:21:20.936Z,30.72
2023-04-22T13:23:48.192Z,30.91
2023-04-22T13:26:15.654Z,30.38
2023-04-22T13:28:49.305Z,30.13
2023-04-22T13:31:17.752Z,31.43
2023-04-22T13:34:02.992Z,30.88
2023-04-22T13:36:30.623Z,30.63
2023-04-22T13:39:01.434Z,31.18
2023-04-22T13:41:29.675Z,30.50
2023-04-22T13:43:58.741Z,29.89
2023-04-22T13:46:34.129Z,29.61
2023-04-22T13:49:01.177Z,30.70
2023-04-22T13:51:28.748Z,30.40
2023-04-22T13:53:56.620Z,30.38
2023-04-22T13:56:42.813Z,30.44
2023-04-22T13:59:11.124Z,29.81
2023-04-22T14:01:38.831Z,29.88
2023-04-22T14:04:14.126Z,30.23
2023-04-22T14:06:42.628Z,31.35
2023-04-22T14:09:09.953Z,29.95
2023-04-22T14:11:40.526Z,29.89
2023-04-22T14:14:08.186Z,29.95
2023-04-22T14:16:37.884Z,29.63
2023-04-22T14:19:06.321Z,30.07
2023-04-22T14:21:37.362Z,29.00
2023-04-22T14:24:04.460Z,29.02
2023-04-22T14:26:32.853Z,28.64
2023-04-22T14:29:01.721Z,28.46
2023-04-22T14:31:29.754Z,28.46
2023-04-22T14:33:57.265Z,28.96
2023-04-22T14:36:25.551Z,28.88
2023-04-22T14:39:01.872Z,29.02
2023-04-22T14:41:29.349Z,29.17
2023-04-22T14:44:05.481Z,28.53
2023-04-22T14:46:32.814Z,28.66
2023-04-22T14:49:04.470Z,29.08
2023-04-22T14:51:32.710Z,29.22
2023-04-22T14:54:03.179Z,29.51
2023-04-22T14:56:31.102Z,29.34
2023-04-22T14:58:59.492Z,29.40
2023-04-22T15:01:27.428Z,29.88
2023-04-22T15:03:54.863Z,29.33
2023-04-22T15:06:24.716Z,29.38
2023-04-22T15:08:52.562Z,29.88
2023-04-22T15:11:19.838Z,29.11
2023-04-22T15:13:50.826Z,30.76
2023-04-22T15:16:18.519Z,29.92
2023-04-22T15:18:46.684Z,29.79
2023-04-22T15:21:14.406Z,30.06
2023-04-22T15:23:45.794Z,30.08
2023-04-22T15:26:16.148Z,30.46
2023-04-22T15:28:43.607Z,29.74
2023-04-22T15:31:11.834Z,29.51
2023-04-22T15:33:42.151Z,29.81
2023-04-22T15:36:10.280Z,29.91
2023-04-22T15:38:38.809Z,30.37
2023-04-22T15:41:06.910Z,30.26
2023-04-22T15:43:35.216Z,30.97
2023-04-22T15:46:10.183Z,30.31
2023-04-22T15:48:37.860Z,30.65
2023-04-22T15:51:08.018Z,31.09
2023-04-22T15:53:37.382Z,30.56
2023-04-22T15:56:04.965Z,31.75
2023-04-22T15:58:36.860Z,30.62
2023-04-22T16:01:17.886Z,30.51
2023-04-22T16:03:47.430Z,30.91
2023-04-22T16:06:15.633Z,30.45
2023-04-22T16:08:43.142Z,30.15
2023-04-22T16:11:11.287Z,29.95
2023-04-22T16:13:39.461Z,31.52
2023-04-22T16:16:07.313Z,31.50
2023-04-22T16:18:47.857Z,31.34
2023-04-22T16:21:15.035Z,31.85
2023-04-22T16:23:44.086Z,31.61
2023-04-22T16:26:12.544Z,31.51
2023-04-22T16:28:39.740Z,32.20
2023-04-22T16:31:09.368Z,32.05
2023-04-22T16:33:37.419Z,31.60
2023-04-22T16:36:06.457Z,31.69
2023-04-22T16:38:45.902Z,31.50
2023-04-22T16:41:12.705Z,32.30
2023-04-22T16:43:54.907Z,32.40
2023-04-22T16:46:22.448Z,32.34
2023-04-22T16:48:53.645Z,31.84
2023-04-22T16:51:20.741Z,31.86
2023-04-22T16:54:12.618Z,32.69
2023-04-22T16:56:39.480Z,32.51
2023-04-22T16:59:14.528Z,32.99
2023-04-22T17:01:42.145Z,32.58
2023-04-22T17:04:09.074Z,32.85
2023-04-22T17:06:43.208Z,32.52
2023-04-22T17:09:10.193Z,32.15
2023-04-22T17:11:37.280Z,33.05
2023-04-22T17:14:04.219Z,33.21
2023-04-22T17:16:33.008Z,33.16
2023-04-22T17:19:00.756Z,32.63
2023-04-22T17:21:29.088Z,32.98
2023-04-22T17:23:58.874Z,33.13
2023-04-22T17:26:26.433Z,33.07
2023-04-22T17:29:01.702Z,33.06
2023-04-22T17:31:29.260Z,33.10
2023-04-22T17:34:01.027Z,32.87
2023-04-22T17:36:28.397Z,32.96
2023-04-22T17:38:57.961Z,33.68
2023-04-22T17:41:27.999Z,33.60
2023-04-22T17:43:55.786Z,33.45
2023-04-22T17:46:32.498Z,33.48
2023-04-22T17:48:59.726Z,33.79
2023-04-22T17:51:29.128Z,33.90
2023-04-22T17:54:00.412Z,33.70
2023-04-22T17:56:31.724Z,34.47
2023-04-22T17:58:59.872Z,34.08
2023-04-22T18:01:29.931Z,33.71
2023-04-22T18:03:57.442Z,34.70
2023-04-22T18:06:25.098Z,34.82
2023-04-22T18:08:52.232Z,35.62
2023-04-22T18:11:20.655Z,35.37
2023-04-22T18:13:47.319Z,34.88
2023-04-22T18:16:15.379Z,34.37
2023-04-22T18:18:44.651Z,33.98
2023-04-22T18:21:16.726Z,34.91
2023-04-22T18:23:43.784Z,34.72
2023-04-22T18:26:11.379Z,34.99
2023-04-22T18:28:40.826Z,34.77
2023-04-22T18:31:08.342Z,34.45
2023-04-22T18:33:36.715Z,35.16
2023-04-22T18:36:04.265Z,34.80
2023-04-22T18:38:32.001Z,35.15
2023-04-22T18:40:59.491Z,34.97
2023-04-22T18:43:27.062Z,35.48
2023-04-22T18:45:53.978Z,34.99
2023-04-22T18:48:22.847Z,35.41
2023-04-22T18:50:50.808Z,35.39
2023-04-22T18:53:18.019Z,35.58
2023-04-22T18:55:45.299Z,35.95
2023-04-22T18:58:21.559Z,35.46
2023-04-22T19:00:49.013Z,35.99
2023-04-22T19:03:19.595Z,35.76
2023-04-22T19:05:47.616Z,36.65
2023-04-22T19:08:15.468Z,35.83
2023-04-22T19:10:43.915Z,36.41
2023-04-22T19:13:18.663Z,36.51
2023-04-22T19:15:56.650Z,37.18
2023-04-22T19:18:25.454Z,37.04
2023-04-22T19:20:55.259Z,37.54
2023-04-22T19:23:22.747Z,36.97
2023-04-22T19:25:53.268Z,36.67
2023-04-22T19:28:21.099Z,37.36
2023-04-22T19:30:49.878Z,37.50
2023-04-22T19:33:17.643Z,37.71
2023-04-22T19:35:45.248Z,37.13
2023-04-22T19:38:16.667Z,36.99
2023-04-22T19:40:44.436Z,36.97
2023-04-22T19:43:12.743Z,37.35
2023-04-22T19:45:41.586Z,37.22
2023-04-22T19:48:09.516Z,36.60
2023-04-22T19:50:37.975Z,37.09
2023-04-22T19:53:12.472Z,36.35
2023-04-22T19:55:40.677Z,36.66
2023-04-22T19:58:08.150Z,36.68
2023-04-22T20:00:35.836Z,37.01
2023-04-22T20:03:04.232Z,36.35
2023-04-22T20:05:31.492Z,37.08
2023-04-22T20:08:01.969Z,36.88
2023-04-22T20:10:33.522Z,36.78
2023-04-22T20:13:01.265Z,36.54
2023-04-22T20:15:28.947Z,36.29
2023-04-22T20:18:04.452Z,36.51
2023-04-22T20:20:32.477Z,36.50
2023-04-22T20:23:02.124Z,36.38
2023-04-22T20:25:31.754Z,36.40
2023-04-22T20:28:00.477Z,36.06
2023-04-22T20:30:28.305Z,36.41
2023-04-22T20:33:02.518Z,36.38
2023-04-22T20:35:30.320Z,37.15
2023-04-22T20:37:59.205Z,37.33
2023-04-22T20:40:28.013Z,37.74
2023-04-22T20:43:01.891Z,38.10
2023-04-22T20:45:30.927Z,37.65
2023-04-22T20:48:06.096Z,37.28
2023-04-22T20:50:34.118Z,37.48
2023-04-22T20:53:04.554Z,37.21
2023-04-22T20:55:32.743Z,36.75
2023-04-22T20:58:01.173Z,37.45
2023-04-22T21:00:29.080Z,39.13
2023-04-22T21:03:00.281Z,40.80
2023-04-22T21:05:29.000Z,41.76
2023-04-22T21:07:57.277Z,41.86
2023-04-22T21:10:24.409Z,43.25
2023-04-22T21:12:51.831Z,43.17
2023-04-22T21:15:19.493Z,43.90
2023-04-22T21:17:55.414Z,44.85
2023-04-22T21:20:24.534Z,44.73
2023-04-22T21:22:52.716Z,46.45
2023-04-22T21:25:22.470Z,45.63
2023-04-22T21:27:50.296Z,45.32
2023-04-22T21:30:38.352Z,45.19
2023-04-22T21:33:05.966Z,44.19
2023-04-22T21:35:33.743Z,45.22
2023-04-22T21:38:02.768Z,46.38
2023-04-22T21:40:30.650Z,46.74
2023-04-22T21:42:57.965Z,45.87
2023-04-22T21:45:27.872Z,45.54
2023-04-22T21:47:55.316Z,45.57
2023-04-22T21:50:23.571Z,46.14
2023-04-22T21:53:04.922Z,46.16
2023-04-22T21:55:32.456Z,45.94
2023-04-22T21:58:04.292Z,47.02
2023-04-22T22:00:32.348Z,45.86
2023-04-22T22:03:00.985Z,45.31
2023-04-22T22:05:30.009Z,45.09
2023-04-22T22:07:57.242Z,45.68
2023-04-22T22:10:24.920Z,45.20
2023-04-22T22:12:52.531Z,45.15
2023-04-22T22:15:19.979Z,44.97
2023-04-22T22:17:51.401Z,44.86
2023-04-22T22:20:20.667Z,44.96
2023-04-22T22:22:47.771Z,44.96
2023-04-22T22:25:17.251Z,45.01
2023-04-22T22:27:52.661Z,45.74
2023-04-22T22:30:23.330Z,45.59
2023-04-22T22:32:52.180Z,45.17
2023-04-22T22:35:20.934Z,45.70
2023-04-22T22:37:48.673Z,45.56
2023-04-22T22:40:15.611Z,45.60
2023-04-22T22:42:47.635Z,45.92
2023-04-22T22:45:15.301Z,45.74
2023-04-22T22:47:46.265Z,46.60
2023-04-22T22:50:16.472Z,46.49
2023-04-22T22:52:45.826Z,47.75
2023-04-22T22:55:13.960Z,47.95
2023-04-22T22:57:45.949Z,47.62
2023-04-22T23:00:14.908Z,47.42
2023-04-22T23:02:44.102Z,48.11
2023-04-22T23:05:12.096Z,47.68
2023-04-22T23:07:51.829Z,47.98
2023-04-22T23:10:21.214Z,49.34
2023-04-22T23:12:55.799Z,50.14
2023-04-22T23:15:29.805Z,51.06
2023-04-22T23:18:02.756Z,51.44
2023-04-22T23:20:33.749Z,52.11
2023-04-22T23:23:02.607Z,51.71
2023-04-22T23:25:30.351Z,50.80
2023-04-22T23:27:57.485Z,50.36
2023-04-22T23:30:25.342Z,50.71
2023-04-22T23:32:53.038Z,50.62
2023-04-22T23:35:21.488Z,50.68
2023-04-22T23:37:51.250Z,50.24
2023-04-22T23:40:19.487Z,50.36
2023-04-22T23:42:48.591Z,50.23
2023-04-22T23:45:16.178Z,50.47
2023-04-22T23:47:48.299Z,50.50
2023-04-22T23:50:16.643Z,50.41
2023-04-22T23:52:46.910Z,50.04
2023-04-22T23:55:16.200Z,50.05
2023-04-22T23:57:46.312Z,49.99
